createdAt,value
2022-12-09T00:00:22.234Z,2.78
2022-12-09T00:02:52.355Z,0.85
2022-12-09T00:05:22.769Z,0.80
2022-12-09T00:07:53.064Z,1.88
2022-12-09T00:10:23.351Z,1.95
2022-12-09T00:12:57.766Z,1.38
2022-12-09T00:15:29.009Z,3.33
2022-12-09T00:18:00.047Z,1.15
2022-12-09T00:20:30.167Z,1.02
2022-12-09T00:23:00.442Z,1.13
2022-12-09T00:25:30.351Z,0.45
2022-12-09T00:28:00.799Z,1.38
2022-12-09T00:30:31.117Z,2.22
2022-12-09T00:33:01.084Z,1.52
2022-12-09T00:35:31.383Z,1.27
2022-12-09T00:38:01.410Z,1.27
2022-12-09T00:40:31.382Z,1.85
2022-12-09T00:43:01.259Z,0.80
2022-12-09T00:45:31.224Z,1.40
2022-12-09T00:48:01.462Z,2.33
2022-12-09T00:50:31.397Z,1.92
2022-12-09T00:53:01.676Z,1.95
2022-12-09T00:55:32.717Z,0.93
2022-12-09T00:58:02.636Z,2.53
2022-12-09T01:00:32.965Z,1.05
2022-12-09T01:03:03.086Z,1.80
2022-12-09T01:05:34.625Z,2.10
2022-12-09T01:08:04.558Z,2.15
2022-12-09T01:10:36.374Z,2.05
2022-12-09T04:52:58.621Z,1.73
2022-12-09T04:55:29.428Z,1.38
2022-12-09T04:58:00.096Z,1.77
2022-12-09T05:00:30.185Z,1.80
2022-12-09T05:03:00.433Z,2.53
2022-12-09T05:05:30.656Z,2.10
2022-12-09T05:08:02.353Z,1.90
2022-12-09T05:10:32.474Z,1.10
2022-12-09T05:13:02.697Z,0.75
2022-12-09T05:15:33.537Z,1.08
2022-12-09T05:18:04.504Z,1.95
2022-12-09T05:20:35.995Z,0.45
2022-12-09T05:23:09.477Z,1.20
2022-12-09T05:25:40.569Z,2.38
2022-12-09T05:28:10.705Z,1.48
2022-12-09T05:30:41.732Z,1.65
2022-12-09T05:33:12.375Z,1.45
2022-12-09T05:35:50.816Z,0.30
2022-12-09T05:38:23.073Z,0.30
2022-12-09T05:40:53.143Z,0.73
2022-12-09T05:43:23.282Z,1.02
2022-12-09T05:45:53.535Z,1.33
2022-12-09T05:48:23.734Z,1.42
2022-12-09T05:51:04.237Z,3.80
2022-12-09T05:53:34.620Z,2.47
2022-12-09T05:56:05.189Z,2.22
2022-12-09T05:58:36.808Z,1.58
2022-12-09T06:01:08.162Z,1.48
2022-12-09T06:03:38.822Z,1.17
2022-12-09T06:06:13.549Z,0.47
2022-12-09T06:08:44.451Z,1.45
2022-12-09T06:11:16.314Z,1.27
2022-12-09T06:13:47.904Z,1.17
2022-12-09T06:16:20.710Z,1.13
2022-12-09T06:18:51.576Z,0.50
2022-12-09T06:21:22.664Z,3.80
2022-12-09T06:23:55.592Z,1.65
2022-12-09T06:26:26.938Z,1.20
2022-12-09T06:28:57.818Z,2.15
2022-12-09T06:31:29.582Z,1.02
2022-12-09T06:34:00.398Z,3.28
2022-12-09T06:36:32.705Z,1.05
2022-12-09T06:39:09.970Z,0.85
2022-12-09T06:41:43.896Z,1.73
2022-12-09T06:44:21.521Z,2.72
2022-12-09T06:46:53.800Z,3.60
2022-12-09T06:49:23.974Z,0.98
2022-12-09T06:52:01.828Z,1.17
2022-12-09T08:52:37.136Z,2.85
2022-12-09T08:55:10.204Z,4.88
2022-12-09T08:57:40.446Z,5.38
2022-12-09T09:00:11.264Z,2.33
2022-12-09T09:02:42.943Z,4.97
2022-12-09T09:05:13.531Z,5.43
2022-12-09T09:07:44.754Z,4.72
2022-12-09T09:10:15.983Z,3.72
2022-12-09T09:12:46.333Z,5.05
2022-12-09T09:15:17.115Z,2.65
2022-12-09T09:17:51.501Z,5.80
2022-12-09T09:20:22.755Z,3.85
2022-12-09T09:22:56.810Z,4.43
2022-12-09T09:25:31.229Z,3.42
2022-12-09T09:28:01.709Z,2.45
2022-12-09T09:30:33.047Z,4.88
2022-12-09T09:33:03.387Z,4.38
2022-12-09T09:35:33.618Z,2.78
2022-12-09T09:38:03.788Z,4.13
2022-12-09T09:40:36.232Z,4.25
2022-12-09T09:43:07.037Z,2.75
2022-12-09T09:45:37.362Z,3.38
2022-12-09T09:48:08.265Z,3.85
2022-12-09T09:50:47.998Z,5.07
2022-12-09T10:59:15.192Z,5.25
2022-12-09T11:01:58.837Z,5.38
2022-12-09T11:04:30.774Z,5.13
2022-12-09T11:07:07.038Z,5.13
2022-12-09T11:09:38.671Z,5.90
2022-12-09T11:12:10.289Z,7.13
2022-12-09T11:14:44.725Z,4.75
2022-12-09T11:17:26.034Z,7.18
2022-12-09T11:19:57.646Z,4.57
2022-12-09T11:22:55.488Z,6.40
2022-12-09T11:25:28.052Z,4.15
2022-12-09T11:28:04.024Z,4.32
2022-12-09T11:33:08.074Z,3.63
2022-12-09T11:35:53.725Z,7.40
2022-12-09T11:38:42.351Z,4.47
2022-12-09T11:41:12.223Z,5.05
2022-12-09T11:43:42.078Z,4.38
2022-12-09T11:46:19.657Z,6.18
2022-12-09T11:49:00.237Z,5.00
2022-12-09T11:51:35.133Z,5.25
2022-12-09T11:54:24.975Z,6.20
2022-12-09T11:56:55.343Z,7.13
2022-12-09T11:59:37.850Z,7.18
2022-12-09T12:02:17.706Z,4.68
2022-12-09T12:04:56.617Z,10.05
2022-12-09T12:07:33.052Z,5.78
2022-12-09T12:10:02.908Z,6.68
2022-12-09T12:12:42.444Z,3.75
2022-12-09T12:15:22.917Z,6.95
2022-12-09T12:17:55.237Z,7.25
2022-12-09T12:20:32.539Z,7.78
2022-12-09T12:23:20.805Z,6.90
2022-12-09T12:25:59.756Z,7.65
2022-12-09T12:28:46.071Z,9.20
2022-12-09T12:31:34.663Z,10.18
2022-12-09T12:34:24.697Z,4.95
2022-12-09T12:36:55.060Z,6.65
2022-12-09T12:39:43.434Z,9.52
2022-12-09T12:42:31.613Z,7.35
2022-12-09T12:45:19.330Z,5.75
2022-12-09T12:47:53.010Z,5.97
2022-12-09T12:50:29.126Z,5.28
2022-12-09T12:53:04.482Z,5.57
2022-12-09T12:55:37.422Z,7.03
2022-12-09T17:47:30.871Z,3.70
2022-12-09T17:50:02.051Z,3.10
2022-12-09T17:52:32.053Z,4.03
2022-12-09T17:55:01.973Z,1.83
2022-12-09T17:57:31.863Z,2.55
2022-12-09T18:00:01.713Z,3.17
2022-12-09T18:02:31.827Z,2.20
2022-12-09T18:05:01.751Z,2.13
2022-12-09T18:07:31.684Z,3.30
2022-12-09T18:10:01.542Z,1.40
2022-12-09T18:12:31.772Z,2.85
2022-12-09T18:15:01.827Z,2.30
2022-12-09T18:17:34.067Z,2.92
2022-12-09T18:20:04.170Z,4.97
2022-12-09T18:22:34.163Z,1.98
2022-12-09T18:25:04.108Z,1.17
2022-12-09T18:27:34.378Z,2.67
2022-12-09T18:30:04.469Z,2.92
2022-12-09T18:32:36.218Z,3.40
2022-12-09T18:35:06.665Z,2.47
2022-12-09T18:37:36.530Z,3.33
2022-12-09T18:40:07.104Z,2.83
2022-12-09T18:42:38.056Z,1.55
2022-12-09T18:45:08.426Z,3.13
2022-12-09T18:47:38.343Z,1.73
2022-12-09T18:50:08.836Z,1.73
2022-12-09T18:52:39.360Z,2.08
2022-12-09T18:55:09.974Z,1.02
2022-12-09T18:57:40.200Z,1.60
2022-12-09T19:00:10.697Z,1.55
2022-12-09T19:02:40.581Z,4.22
2022-12-09T19:05:10.850Z,4.72
2022-12-09T19:07:40.761Z,3.75
2022-12-09T19:10:11.267Z,2.78
2022-12-09T19:12:51.583Z,1.20
2022-12-09T19:15:25.491Z,1.85
2022-12-09T19:17:55.868Z,5.80
2022-12-09T19:20:27.749Z,4.25
2022-12-09T19:22:59.173Z,2.65
2022-12-09T19:25:29.212Z,3.30
2022-12-09T19:27:59.046Z,2.42
2022-12-09T19:30:28.945Z,1.80
2022-12-09T19:32:59.882Z,2.72
2022-12-09T19:35:29.754Z,1.52
2022-12-09T19:38:01.438Z,4.10
2022-12-09T19:40:31.742Z,3.03
2022-12-09T19:43:01.607Z,2.50
2022-12-09T19:45:31.507Z,2.08
2022-12-09T19:48:01.436Z,3.30
2022-12-09T19:50:31.436Z,3.75
2022-12-09T19:53:01.780Z,1.00
2022-12-09T19:55:31.879Z,1.90
2022-12-09T19:58:01.766Z,3.53
2022-12-09T20:00:33.714Z,1.35
2022-12-09T20:03:07.908Z,1.83
2022-12-09T20:05:37.957Z,3.30
2022-12-09T20:08:08.012Z,3.42
2022-12-09T20:10:38.404Z,3.50
2022-12-09T20:13:08.265Z,1.55
2022-12-09T20:15:39.262Z,2.75
2022-12-09T20:18:09.187Z,1.90
2022-12-09T20:20:44.245Z,1.38
2022-12-09T20:23:17.094Z,3.42
2022-12-09T20:25:47.000Z,1.45
2022-12-09T20:28:16.873Z,1.33
2022-12-09T20:30:47.027Z,1.77
2022-12-09T20:33:16.864Z,3.67
2022-12-09T20:35:47.185Z,1.48
2022-12-09T20:38:19.984Z,1.98
2022-12-09T20:40:49.883Z,1.88
2022-12-09T20:43:19.728Z,2.08
2022-12-09T20:45:50.172Z,2.17
2022-12-09T20:48:20.049Z,1.05
2022-12-09T20:50:50.668Z,1.80
2022-12-09T20:53:20.514Z,0.70
2022-12-09T20:55:58.655Z,1.70
2022-12-09T20:58:28.787Z,2.05
2022-12-09T21:00:59.118Z,3.15
2022-12-09T21:03:29.434Z,3.22
2022-12-09T21:06:00.130Z,2.40
2022-12-09T21:08:31.795Z,2.75
2022-12-09T21:11:30.897Z,1.02
2022-12-09T21:14:06.399Z,1.15
2022-12-09T21:16:48.498Z,1.38
2022-12-09T21:19:19.428Z,1.55
2022-12-09T21:21:50.261Z,2.22
2022-12-09T21:24:21.905Z,2.40
2022-12-09T21:26:54.697Z,3.17
2022-12-09T21:29:31.349Z,6.60
2022-12-09T21:32:02.609Z,2.25
2022-12-09T21:34:33.277Z,3.67
2022-12-09T21:37:04.071Z,3.35
2022-12-09T21:39:34.130Z,2.05
2022-12-09T21:42:04.025Z,1.27
2022-12-09T21:44:34.286Z,3.28
2022-12-09T21:47:05.436Z,0.98
2022-12-09T21:49:35.305Z,2.28
2022-12-09T21:52:08.079Z,3.80
2022-12-09T21:54:39.607Z,2.97
2022-12-09T21:57:09.884Z,1.23
2022-12-09T21:59:40.161Z,5.20
2022-12-09T22:02:10.094Z,3.17
2022-12-09T22:04:39.987Z,2.40
2022-12-09T22:07:10.407Z,1.75
2022-12-09T22:09:40.323Z,1.25
2022-12-09T22:12:10.324Z,4.70
2022-12-09T22:14:40.281Z,3.08
2022-12-09T22:17:10.281Z,1.95
2022-12-09T22:19:40.298Z,2.38
2022-12-09T22:22:10.586Z,1.85
2022-12-09T22:24:40.554Z,4.15
2022-12-09T22:27:10.617Z,2.00
2022-12-09T22:29:40.502Z,0.75
2022-12-09T22:32:11.352Z,1.25
2022-12-09T22:34:41.222Z,1.52
2022-12-09T22:37:41.909Z,1.88
2022-12-09T22:40:01.311Z,1.80
2022-12-09T22:42:34.999Z,0.93
2022-12-09T22:45:04.919Z,3.60
2022-12-09T22:47:34.925Z,4.85
2022-12-09T22:50:05.753Z,1.98
2022-12-09T22:52:35.871Z,0.95
2022-12-09T22:55:05.773Z,0.98
2022-12-09T22:57:35.632Z,1.58
2022-12-09T23:00:07.351Z,1.13
2022-12-09T23:02:37.941Z,1.92
2022-12-09T23:05:11.977Z,1.73
2022-12-09T23:07:41.931Z,3.30
2022-12-09T23:10:13.441Z,1.77
2022-12-09T23:12:43.289Z,3.13
2022-12-09T23:15:13.996Z,4.30
2022-12-09T23:17:43.832Z,2.90
2022-12-09T23:20:14.322Z,1.23
2022-12-09T23:22:44.403Z,2.47
2022-12-09T23:25:14.432Z,3.25
2022-12-09T23:27:44.315Z,1.55
2022-12-09T23:30:15.356Z,1.20
2022-12-09T23:32:48.722Z,0.95
2022-12-09T23:35:19.401Z,1.58
2022-12-09T23:37:49.299Z,4.50
2022-12-09T23:40:19.143Z,3.05
2022-12-09T23:42:49.633Z,1.60
2022-12-09T23:45:19.533Z,1.23
2022-12-09T23:47:49.464Z,2.97
2022-12-09T23:50:19.368Z,2.80
2022-12-09T23:52:49.249Z,2.90
2022-12-09T23:55:19.256Z,2.08
2022-12-09T23:57:49.133Z,1.83
